sensor_id;sensor_type;location;lat;lon;timestamp;temperature;humidity
43047;DHT22;28672;49.358;8.780;2022-09-27T00:00:42;10.90;99.90
43047;DHT22;28672;49.358;8.780;2022-09-27T00:03:09;10.90;99.90
43047;DHT22;28672;49.358;8.780;2022-09-27T00:05:35;10.90;99.90
43047;DHT22;28672;49.358;8.780;2022-09-27T00:08:01;10.90;99.90
43047;DHT22;28672;49.358;8.780;2022-09-27T00:10:27;10.90;99.90
43047;DHT22;28672;49.358;8.780;2022-09-27T00:12:53;10.80;99.90
43047;DHT22;28672;49.358;8.780;2022-09-27T00:15:19;10.80;99.90
43047;DHT22;28672;49.358;8.780;2022-09-27T00:17:45;10.80;99.90
43047;DHT22;28672;49.358;8.780;2022-09-27T00:20:11;10.80;99.90
43047;DHT22;28672;49.358;8.780;2022-09-27T00:22:37;10.90;99.90
43047;DHT22;28672;49.358;8.780;2022-09-27T00:25:03;10.80;99.90
43047;DHT22;28672;49.358;8.780;2022-09-27T00:27:31;10.80;99.90
43047;DHT22;28672;49.358;8.780;2022-09-27T00:29:57;10.80;99.90
43047;DHT22;28672;49.358;8.780;2022-09-27T00:32:22;10.80;99.90
43047;DHT22;28672;49.358;8.780;2022-09-27T00:34:48;10.80;99.90
43047;DHT22;28672;49.358;8.780;2022-09-27T00:37:13;10.80;99.90
43047;DHT22;28672;49.358;8.780;2022-09-27T00:39:39;10.90;99.90
43047;DHT22;28672;49.358;8.780;2022-09-27T00:42:08;10.90;99.90
43047;DHT22;28672;49.358;8.780;2022-09-27T00:47:26;11.00;99.90
43047;DHT22;28672;49.358;8.780;2022-09-27T00:49:56;11.00;99.90
43047;DHT22;28672;49.358;8.780;2022-09-27T00:52:28;11.00;99.90
43047;DHT22;28672;49.358;8.780;2022-09-27T00:55:00;11.00;99.90
43047;DHT22;28672;49.358;8.780;2022-09-27T00:57:27;11.00;99.90
43047;DHT22;28672;49.358;8.780;2022-09-27T00:59:58;11.00;99.90
43047;DHT22;28672;49.358;8.780;2022-09-27T01:02:25;11.00;99.90
43047;DHT22;28672;49.358;8.780;2022-09-27T01:04:52;10.90;99.90
43047;DHT22;28672;49.358;8.780;2022-09-27T01:07:19;10.90;99.90
43047;DHT22;28672;49.358;8.780;2022-09-27T01:09:45;10.90;99.90
43047;DHT22;28672;49.358;8.780;2022-09-27T01:12:41;11.00;99.90
43047;DHT22;28672;49.358;8.780;2022-09-27T01:24:13;10.80;99.90
43047;DHT22;28672;49.358;8.780;2022-09-27T01:27:13;10.90;99.90
43047;DHT22;28672;49.358;8.780;2022-09-27T01:35:34;10.90;99.90
43047;DHT22;28672;49.358;8.780;2022-09-27T01:38:11;10.90;99.90
43047;DHT22;28672;49.358;8.780;2022-09-27T01:43:15;10.90;99.90
43047;DHT22;28672;49.358;8.780;2022-09-27T01:46:22;10.90;99.90
43047;DHT22;28672;49.358;8.780;2022-09-27T01:48:50;10.90;99.90
43047;DHT22;28672;49.358;8.780;2022-09-27T01:51:22;10.90;99.90
43047;DHT22;28672;49.358;8.780;2022-09-27T01:53:53;11.00;99.90
43047;DHT22;28672;49.358;8.780;2022-09-27T01:56:26;10.90;99.90
43047;DHT22;28672;49.358;8.780;2022-09-27T01:59:06;10.90;99.90
43047;DHT22;28672;49.358;8.780;2022-09-27T02:01:35;10.90;99.90
43047;DHT22;28672;49.358;8.780;2022-09-27T02:04:02;10.80;99.90
43047;DHT22;28672;49.358;8.780;2022-09-27T02:06:38;10.80;99.90
43047;DHT22;28672;49.358;8.780;2022-09-27T02:09:09;10.90;99.90
43047;DHT22;28672;49.358;8.780;2022-09-27T02:11:38;10.90;99.90
43047;DHT22;28672;49.358;8.780;2022-09-27T02:14:10;10.90;99.90
43047;DHT22;28672;49.358;8.780;2022-09-27T02:16:50;10.90;99.90
43047;DHT22;28672;49.358;8.780;2022-09-27T02:19:32;11.00;99.90
43047;DHT22;28672;49.358;8.780;2022-09-27T02:22:11;10.90;99.90
43047;DHT22;28672;49.358;8.780;2022-09-27T02:24:47;10.90;99.90
43047;DHT22;28672;49.358;8.780;2022-09-27T02:27:20;10.80;99.90
43047;DHT22;28672;49.358;8.780;2022-09-27T02:30:00;10.90;99.90
43047;DHT22;28672;49.358;8.780;2022-09-27T02:32:26;10.80;99.90
43047;DHT22;28672;49.358;8.780;2022-09-27T02:34:54;10.80;99.90
43047;DHT22;28672;49.358;8.780;2022-09-27T02:37:22;10.80;99.90
43047;DHT22;28672;49.358;8.780;2022-09-27T02:39:48;10.80;99.90
43047;DHT22;28672;49.358;8.780;2022-09-27T02:42:13;10.80;99.90
43047;DHT22;28672;49.358;8.780;2022-09-27T02:44:39;10.80;99.90
43047;DHT22;28672;49.358;8.780;2022-09-27T02:53:00;10.80;99.90
43047;DHT22;28672;49.358;8.780;2022-09-27T03:01:04;10.80;99.90
43047;DHT22;28672;49.358;8.780;2022-09-27T03:06:22;10.80;99.90
43047;DHT22;28672;49.358;8.780;2022-09-27T03:08:48;10.70;99.90
43047;DHT22;28672;49.358;8.780;2022-09-27T03:11:14;10.70;99.90
43047;DHT22;28672;49.358;8.780;2022-09-27T03:13:40;10.80;99.90
43047;DHT22;28672;49.358;8.780;2022-09-27T03:16:07;10.70;99.90
43047;DHT22;28672;49.358;8.780;2022-09-27T03:18:32;10.80;99.90
43047;DHT22;28672;49.358;8.780;2022-09-27T03:20:58;10.80;99.90
43047;DHT22;28672;49.358;8.780;2022-09-27T03:23:23;10.70;99.90
43047;DHT22;28672;49.358;8.780;2022-09-27T03:25:49;10.70;99.90
43047;DHT22;28672;49.358;8.780;2022-09-27T03:28:16;10.70;99.90
43047;DHT22;28672;49.358;8.780;2022-09-27T03:30:43;10.80;99.90
43047;DHT22;28672;49.358;8.780;2022-09-27T03:33:08;10.80;99.90
43047;DHT22;28672;49.358;8.780;2022-09-27T03:35:34;10.80;99.90
43047;DHT22;28672;49.358;8.780;2022-09-27T03:38:00;10.80;99.90
43047;DHT22;28672;49.358;8.780;2022-09-27T03:40:25;10.80;99.90
43047;DHT22;28672;49.358;8.780;2022-09-27T03:42:51;10.70;99.90
43047;DHT22;28672;49.358;8.780;2022-09-27T03:45:17;10.70;99.90
43047;DHT22;28672;49.358;8.780;2022-09-27T03:47:43;10.70;99.90
43047;DHT22;28672;49.358;8.780;2022-09-27T03:50:09;10.70;99.90
43047;DHT22;28672;49.358;8.780;2022-09-27T03:52:36;10.70;99.90
43047;DHT22;28672;49.358;8.780;2022-09-27T03:55:01;10.60;99.90
43047;DHT22;28672;49.358;8.780;2022-09-27T03:57:27;10.70;99.90
43047;DHT22;28672;49.358;8.780;2022-09-27T03:59:53;10.70;99.90
43047;DHT22;28672;49.358;8.780;2022-09-27T04:02:19;10.60;99.90
43047;DHT22;28672;49.358;8.780;2022-09-27T04:04:44;10.70;99.90
43047;DHT22;28672;49.358;8.780;2022-09-27T04:07:10;10.70;99.90
43047;DHT22;28672;49.358;8.780;2022-09-27T04:09:35;10.60;99.90
43047;DHT22;28672;49.358;8.780;2022-09-27T04:12:02;10.70;99.90
43047;DHT22;28672;49.358;8.780;2022-09-27T04:14:28;10.60;99.90
43047;DHT22;28672;49.358;8.780;2022-09-27T04:16:54;10.70;99.90
43047;DHT22;28672;49.358;8.780;2022-09-27T04:19:20;10.70;99.90
43047;DHT22;28672;49.358;8.780;2022-09-27T04:21:45;10.60;99.90
43047;DHT22;28672;49.358;8.780;2022-09-27T04:24:11;10.70;99.90
43047;DHT22;28672;49.358;8.780;2022-09-27T04:26:37;10.60;99.90
43047;DHT22;28672;49.358;8.780;2022-09-27T04:29:04;10.60;99.90
43047;DHT22;28672;49.358;8.780;2022-09-27T04:31:30;10.60;99.90
43047;DHT22;28672;49.358;8.780;2022-09-27T04:33:56;10.60;99.90
43047;DHT22;28672;49.358;8.780;2022-09-27T04:36:22;10.60;99.90
43047;DHT22;28672;49.358;8.780;2022-09-27T04:38:51;10.50;99.90
43047;DHT22;28672;49.358;8.780;2022-09-27T04:41:18;10.50;99.90
43047;DHT22;28672;49.358;8.780;2022-09-27T04:43:43;10.60;99.90
43047;DHT22;28672;49.358;8.780;2022-09-27T04:46:08;10.60;99.90
43047;DHT22;28672;49.358;8.780;2022-09-27T04:48:34;10.60;99.90
43047;DHT22;28672;49.358;8.780;2022-09-27T04:51:01;10.50;99.90
43047;DHT22;28672;49.358;8.780;2022-09-27T04:53:27;10.60;99.90
43047;DHT22;28672;49.358;8.780;2022-09-27T04:55:54;10.50;99.90
43047;DHT22;28672;49.358;8.780;2022-09-27T04:58:21;10.50;99.90
43047;DHT22;28672;49.358;8.780;2022-09-27T05:00:47;10.60;99.90
43047;DHT22;28672;49.358;8.780;2022-09-27T05:03:12;10.50;99.90
43047;DHT22;28672;49.358;8.780;2022-09-27T05:05:39;10.50;99.90
43047;DHT22;28672;49.358;8.780;2022-09-27T05:08:06;10.50;99.90
43047;DHT22;28672;49.358;8.780;2022-09-27T05:10:31;10.50;99.90
43047;DHT22;28672;49.358;8.780;2022-09-27T05:12:57;10.50;99.90
43047;DHT22;28672;49.358;8.780;2022-09-27T05:15:22;10.50;99.90
43047;DHT22;28672;49.358;8.780;2022-09-27T05:17:50;10.60;99.90
43047;DHT22;28672;49.358;8.780;2022-09-27T05:20:17;10.60;99.90
43047;DHT22;28672;49.358;8.780;2022-09-27T05:22:43;10.50;99.90
43047;DHT22;28672;49.358;8.780;2022-09-27T05:25:09;10.50;99.90
43047;DHT22;28672;49.358;8.780;2022-09-27T05:27:35;10.50;99.90
43047;DHT22;28672;49.358;8.780;2022-09-27T05:30:00;10.50;99.90
43047;DHT22;28672;49.358;8.780;2022-09-27T05:32:27;10.50;99.90
43047;DHT22;28672;49.358;8.780;2022-09-27T05:34:52;10.50;99.90
43047;DHT22;28672;49.358;8.780;2022-09-27T05:37:18;10.50;99.90
43047;DHT22;28672;49.358;8.780;2022-09-27T05:39:44;10.50;99.90
43047;DHT22;28672;49.358;8.780;2022-09-27T05:42:11;10.50;99.90
43047;DHT22;28672;49.358;8.780;2022-09-27T05:44:38;10.50;99.90
43047;DHT22;28672;49.358;8.780;2022-09-27T05:47:04;10.50;99.90
43047;DHT22;28672;49.358;8.780;2022-09-27T05:49:30;10.50;99.90
43047;DHT22;28672;49.358;8.780;2022-09-27T05:51:56;10.50;99.90
43047;DHT22;28672;49.358;8.780;2022-09-27T05:54:21;10.50;99.90
43047;DHT22;28672;49.358;8.780;2022-09-27T05:56:47;10.50;99.90
43047;DHT22;28672;49.358;8.780;2022-09-27T05:59:13;10.40;99.90
43047;DHT22;28672;49.358;8.780;2022-09-27T06:01:38;10.40;99.90
43047;DHT22;28672;49.358;8.780;2022-09-27T06:04:04;10.40;99.90
43047;DHT22;28672;49.358;8.780;2022-09-27T06:06:30;10.50;99.90
43047;DHT22;28672;49.358;8.780;2022-09-27T06:08:56;10.40;99.90
43047;DHT22;28672;49.358;8.780;2022-09-27T06:11:22;10.50;99.90
43047;DHT22;28672;49.358;8.780;2022-09-27T06:13:47;10.50;99.90
43047;DHT22;28672;49.358;8.780;2022-09-27T06:16:13;10.60;99.90
43047;DHT22;28672;49.358;8.780;2022-09-27T06:18:38;10.70;99.90
43047;DHT22;28672;49.358;8.780;2022-09-27T06:21:05;10.70;99.90
43047;DHT22;28672;49.358;8.780;2022-09-27T06:23:31;10.80;99.90
43047;DHT22;28672;49.358;8.780;2022-09-27T06:26:01;10.90;99.90
43047;DHT22;28672;49.358;8.780;2022-09-27T06:28:27;10.90;99.90
43047;DHT22;28672;49.358;8.780;2022-09-27T06:30:54;10.90;99.90
43047;DHT22;28672;49.358;8.780;2022-09-27T06:33:20;10.90;99.90
43047;DHT22;28672;49.358;8.780;2022-09-27T06:35:46;10.80;99.90
43047;DHT22;28672;49.358;8.780;2022-09-27T06:38:15;10.90;99.90
43047;DHT22;28672;49.358;8.780;2022-09-27T06:40:44;10.90;99.90
43047;DHT22;28672;49.358;8.780;2022-09-27T06:43:11;10.90;99.90
43047;DHT22;28672;49.358;8.780;2022-09-27T06:45:37;10.90;99.90
43047;DHT22;28672;49.358;8.780;2022-09-27T06:48:05;10.90;99.90
43047;DHT22;28672;49.358;8.780;2022-09-27T06:50:33;10.90;99.90
43047;DHT22;28672;49.358;8.780;2022-09-27T06:53:00;11.00;99.90
43047;DHT22;28672;49.358;8.780;2022-09-27T06:55:26;11.00;99.90
43047;DHT22;28672;49.358;8.780;2022-09-27T06:57:59;10.90;99.90
43047;DHT22;28672;49.358;8.780;2022-09-27T07:00:44;10.80;99.90
43047;DHT22;28672;49.358;8.780;2022-09-27T07:03:12;10.80;99.90
43047;DHT22;28672;49.358;8.780;2022-09-27T07:05:39;10.80;99.90
43047;DHT22;28672;49.358;8.780;2022-09-27T07:08:08;10.90;99.90
43047;DHT22;28672;49.358;8.780;2022-09-27T07:10:36;10.90;99.90
43047;DHT22;28672;49.358;8.780;2022-09-27T07:13:06;10.80;99.90
43047;DHT22;28672;49.358;8.780;2022-09-27T07:15:33;10.90;99.90
43047;DHT22;28672;49.358;8.780;2022-09-27T07:18:00;10.90;99.90
43047;DHT22;28672;49.358;8.780;2022-09-27T07:20:26;10.90;99.90
43047;DHT22;28672;49.358;8.780;2022-09-27T07:22:52;10.80;99.90
43047;DHT22;28672;49.358;8.780;2022-09-27T07:25:18;10.90;99.90
43047;DHT22;28672;49.358;8.780;2022-09-27T07:27:43;10.90;99.90
43047;DHT22;28672;49.358;8.780;2022-09-27T07:30:11;11.00;99.90
43047;DHT22;28672;49.358;8.780;2022-09-27T07:32:37;11.00;99.90
43047;DHT22;28672;49.358;8.780;2022-09-27T07:35:04;11.00;99.90
43047;DHT22;28672;49.358;8.780;2022-09-27T07:37:37;11.00;99.90
43047;DHT22;28672;49.358;8.780;2022-09-27T07:40:04;11.10;99.90
43047;DHT22;28672;49.358;8.780;2022-09-27T07:42:36;11.10;99.90
43047;DHT22;28672;49.358;8.780;2022-09-27T07:45:05;11.10;99.90
43047;DHT22;28672;49.358;8.780;2022-09-27T07:47:31;11.10;99.90
43047;DHT22;28672;49.358;8.780;2022-09-27T07:49:57;11.20;99.90
43047;DHT22;28672;49.358;8.780;2022-09-27T07:52:22;11.30;99.90
43047;DHT22;28672;49.358;8.780;2022-09-27T07:54:48;11.20;99.90
43047;DHT22;28672;49.358;8.780;2022-09-27T07:57:14;11.20;99.90
43047;DHT22;28672;49.358;8.780;2022-09-27T07:59:40;11.20;99.90
43047;DHT22;28672;49.358;8.780;2022-09-27T08:02:12;11.20;99.90
43047;DHT22;28672;49.358;8.780;2022-09-27T08:04:38;11.20;99.90
43047;DHT22;28672;49.358;8.780;2022-09-27T08:07:03;11.20;99.90
43047;DHT22;28672;49.358;8.780;2022-09-27T08:09:29;11.20;99.90
43047;DHT22;28672;49.358;8.780;2022-09-27T08:11:55;11.20;99.90
43047;DHT22;28672;49.358;8.780;2022-09-27T08:14:22;11.30;99.90
43047;DHT22;28672;49.358;8.780;2022-09-27T08:16:48;11.20;99.90
43047;DHT22;28672;49.358;8.780;2022-09-27T08:19:15;11.20;99.90
43047;DHT22;28672;49.358;8.780;2022-09-27T08:21:41;11.30;99.90
43047;DHT22;28672;49.358;8.780;2022-09-27T08:24:06;11.30;99.90
43047;DHT22;28672;49.358;8.780;2022-09-27T08:26:32;11.30;99.90
43047;DHT22;28672;49.358;8.780;2022-09-27T08:28:57;11.40;99.90
43047;DHT22;28672;49.358;8.780;2022-09-27T08:31:23;11.50;99.90
43047;DHT22;28672;49.358;8.780;2022-09-27T08:33:50;11.60;99.90
43047;DHT22;28672;49.358;8.780;2022-09-27T08:36:16;11.80;99.90
43047;DHT22;28672;49.358;8.780;2022-09-27T08:38:42;11.80;99.90
43047;DHT22;28672;49.358;8.780;2022-09-27T08:44:06;11.60;99.90
43047;DHT22;28672;49.358;8.780;2022-09-27T08:49:23;11.60;99.90
43047;DHT22;28672;49.358;8.780;2022-09-27T08:51:50;11.60;99.90
43047;DHT22;28672;49.358;8.780;2022-09-27T08:54:27;11.70;99.90
43047;DHT22;28672;49.358;8.780;2022-09-27T08:56:58;11.80;99.90
43047;DHT22;28672;49.358;8.780;2022-09-27T08:59:29;11.80;99.90
43047;DHT22;28672;49.358;8.780;2022-09-27T09:01:56;11.80;99.90
43047;DHT22;28672;49.358;8.780;2022-09-27T09:04:33;11.80;99.90
43047;DHT22;28672;49.358;8.780;2022-09-27T09:12:52;11.90;99.90
43047;DHT22;28672;49.358;8.780;2022-09-27T09:15:44;12.00;99.90
43047;DHT22;28672;49.358;8.780;2022-09-27T09:18:45;12.00;99.90
43047;DHT22;28672;49.358;8.780;2022-09-27T09:24:16;11.80;99.90
43047;DHT22;28672;49.358;8.780;2022-09-27T09:30:00;12.00;99.90
43047;DHT22;28672;49.358;8.780;2022-09-27T09:32:48;11.90;99.90
43047;DHT22;28672;49.358;8.780;2022-09-27T09:35:20;12.10;99.90
43047;DHT22;28672;49.358;8.780;2022-09-27T09:37:59;12.40;99.90
43047;DHT22;28672;49.358;8.780;2022-09-27T09:40:40;12.50;99.90
43047;DHT22;28672;49.358;8.780;2022-09-27T09:45:47;12.90;99.90
43047;DHT22;28672;49.358;8.780;2022-09-27T09:51:14;13.20;99.90
43047;DHT22;28672;49.358;8.780;2022-09-27T09:53:46;13.20;99.90
43047;DHT22;28672;49.358;8.780;2022-09-27T09:56:22;13.30;99.90
43047;DHT22;28672;49.358;8.780;2022-09-27T10:01:26;13.00;99.90
43047;DHT22;28672;49.358;8.780;2022-09-27T10:03:54;13.10;99.90
43047;DHT22;28672;49.358;8.780;2022-09-27T10:06:20;13.00;99.90
43047;DHT22;28672;49.358;8.780;2022-09-27T10:08:46;13.10;99.90
43047;DHT22;28672;49.358;8.780;2022-09-27T10:11:21;13.00;99.90
43047;DHT22;28672;49.358;8.780;2022-09-27T10:13:48;13.20;99.90
43047;DHT22;28672;49.358;8.780;2022-09-27T10:16:17;13.20;99.90
43047;DHT22;28672;49.358;8.780;2022-09-27T10:18:43;13.00;99.90
43047;DHT22;28672;49.358;8.780;2022-09-27T10:21:19;12.70;99.90
43047;DHT22;28672;49.358;8.780;2022-09-27T10:26:29;12.60;99.90
43047;DHT22;28672;49.358;8.780;2022-09-27T10:28:54;12.80;99.90
43047;DHT22;28672;49.358;8.780;2022-09-27T10:31:20;12.70;99.90
43047;DHT22;28672;49.358;8.780;2022-09-27T10:34:01;12.70;99.90
43047;DHT22;28672;49.358;8.780;2022-09-27T10:36:31;12.70;99.90
43047;DHT22;28672;49.358;8.780;2022-09-27T10:39:02;12.50;99.90
43047;DHT22;28672;49.358;8.780;2022-09-27T10:41:37;12.60;99.90
43047;DHT22;28672;49.358;8.780;2022-09-27T10:46:41;12.60;99.90
43047;DHT22;28672;49.358;8.780;2022-09-27T10:49:30;12.60;99.90
43047;DHT22;28672;49.358;8.780;2022-09-27T10:52:07;12.40;99.90
43047;DHT22;28672;49.358;8.780;2022-09-27T10:54:35;12.40;99.90
43047;DHT22;28672;49.358;8.780;2022-09-27T10:59:40;12.70;99.90
43047;DHT22;28672;49.358;8.780;2022-09-27T11:02:19;12.70;99.90
43047;DHT22;28672;49.358;8.780;2022-09-27T11:05:03;12.60;99.90
43047;DHT22;28672;49.358;8.780;2022-09-27T11:07:29;12.60;99.90
43047;DHT22;28672;49.358;8.780;2022-09-27T11:09:56;12.20;99.90
43047;DHT22;28672;49.358;8.780;2022-09-27T11:12:27;12.20;99.90
43047;DHT22;28672;49.358;8.780;2022-09-27T11:15:03;12.20;99.90
43047;DHT22;28672;49.358;8.780;2022-09-27T11:17:49;12.30;99.90
43047;DHT22;28672;49.358;8.780;2022-09-27T11:20:40;12.40;99.90
43047;DHT22;28672;49.358;8.780;2022-09-27T11:23:15;12.40;99.90
43047;DHT22;28672;49.358;8.780;2022-09-27T11:29:14;13.10;99.90
43047;DHT22;28672;49.358;8.780;2022-09-27T11:31:42;13.30;99.90
43047;DHT22;28672;49.358;8.780;2022-09-27T11:37:13;13.30;99.90
43047;DHT22;28672;49.358;8.780;2022-09-27T11:45:41;13.50;99.90
43047;DHT22;28672;49.358;8.780;2022-09-27T11:48:25;13.50;99.90
43047;DHT22;28672;49.358;8.780;2022-09-27T11:51:06;13.70;99.90
43047;DHT22;28672;49.358;8.780;2022-09-27T11:53:47;13.30;99.90
43047;DHT22;28672;49.358;8.780;2022-09-27T11:59:08;13.40;99.90
43047;DHT22;28672;49.358;8.780;2022-09-27T12:01:51;13.60;99.90
43047;DHT22;28672;49.358;8.780;2022-09-27T12:07:13;13.40;99.90
43047;DHT22;28672;49.358;8.780;2022-09-27T12:09:46;13.30;99.90
43047;DHT22;28672;49.358;8.780;2022-09-27T12:12:22;13.40;99.90
43047;DHT22;28672;49.358;8.780;2022-09-27T12:14:56;13.30;99.90
43047;DHT22;28672;49.358;8.780;2022-09-27T12:17:29;13.20;99.90
43047;DHT22;28672;49.358;8.780;2022-09-27T12:19:57;13.30;99.90
43047;DHT22;28672;49.358;8.780;2022-09-27T12:22:28;13.50;99.90
43047;DHT22;28672;49.358;8.780;2022-09-27T12:24:55;13.80;99.90
43047;DHT22;28672;49.358;8.780;2022-09-27T12:27:33;14.20;99.90
43047;DHT22;28672;49.358;8.780;2022-09-27T12:30:01;13.90;99.90
43047;DHT22;28672;49.358;8.780;2022-09-27T12:32:34;14.00;99.90
43047;DHT22;28672;49.358;8.780;2022-09-27T12:37:47;14.40;99.90
43047;DHT22;28672;49.358;8.780;2022-09-27T12:40:18;14.60;99.90
43047;DHT22;28672;49.358;8.780;2022-09-27T12:42:53;14.30;99.90
43047;DHT22;28672;49.358;8.780;2022-09-27T12:50:52;13.60;99.90
43047;DHT22;28672;49.358;8.780;2022-09-27T12:53:25;13.70;99.90
43047;DHT22;28672;49.358;8.780;2022-09-27T12:58:53;13.40;99.90
43047;DHT22;28672;49.358;8.780;2022-09-27T13:01:42;13.20;99.90
43047;DHT22;28672;49.358;8.780;2022-09-27T13:09:43;13.50;99.90
43047;DHT22;28672;49.358;8.780;2022-09-27T13:12:17;13.30;99.90
43047;DHT22;28672;49.358;8.780;2022-09-27T13:22:52;13.00;99.90
43047;DHT22;28672;49.358;8.780;2022-09-27T13:25:46;13.10;99.90
43047;DHT22;28672;49.358;8.780;2022-09-27T13:34:41;13.60;99.90
43047;DHT22;28672;49.358;8.780;2022-09-27T13:43:00;13.60;99.90
43047;DHT22;28672;49.358;8.780;2022-09-27T13:48:19;13.50;99.90
43047;DHT22;28672;49.358;8.780;2022-09-27T13:50:57;13.50;99.90
43047;DHT22;28672;49.358;8.780;2022-09-27T13:53:38;13.40;99.90
43047;DHT22;28672;49.358;8.780;2022-09-27T13:56:05;13.40;99.90
43047;DHT22;28672;49.358;8.780;2022-09-27T13:58:57;13.20;99.90
43047;DHT22;28672;49.358;8.780;2022-09-27T14:01:35;13.20;99.90
43047;DHT22;28672;49.358;8.780;2022-09-27T14:04:17;13.10;99.90
43047;DHT22;28672;49.358;8.780;2022-09-27T14:06:47;13.00;99.90
43047;DHT22;28672;49.358;8.780;2022-09-27T14:09:18;13.10;99.90
43047;DHT22;28672;49.358;8.780;2022-09-27T14:11:50;13.40;99.90
43047;DHT22;28672;49.358;8.780;2022-09-27T14:14:20;13.10;99.90
43047;DHT22;28672;49.358;8.780;2022-09-27T14:16:47;13.20;99.90
43047;DHT22;28672;49.358;8.780;2022-09-27T14:19:22;13.20;99.90
43047;DHT22;28672;49.358;8.780;2022-09-27T14:21:50;13.30;99.90
43047;DHT22;28672;49.358;8.780;2022-09-27T14:30:32;12.90;99.90
43047;DHT22;28672;49.358;8.780;2022-09-27T14:32:44;12.90;99.90
43047;DHT22;28672;49.358;8.780;2022-09-27T14:35:16;12.80;99.90
43047;DHT22;28672;49.358;8.780;2022-09-27T14:38:13;12.80;99.90
43047;DHT22;28672;49.358;8.780;2022-09-27T14:43:22;12.80;99.90
43047;DHT22;28672;49.358;8.780;2022-09-27T14:45:50;12.50;99.90
43047;DHT22;28672;49.358;8.780;2022-09-27T14:48:19;12.50;99.90
43047;DHT22;28672;49.358;8.780;2022-09-27T14:51:17;12.40;99.90
43047;DHT22;28672;49.358;8.780;2022-09-27T14:53:53;12.30;99.90
43047;DHT22;28672;49.358;8.780;2022-09-27T14:56:25;12.30;99.90
43047;DHT22;28672;49.358;8.780;2022-09-27T14:58:54;12.20;99.90
43047;DHT22;28672;49.358;8.780;2022-09-27T15:01:26;12.20;99.90
43047;DHT22;28672;49.358;8.780;2022-09-27T15:03:53;12.00;99.90
43047;DHT22;28672;49.358;8.780;2022-09-27T15:06:19;12.10;99.90
43047;DHT22;28672;49.358;8.780;2022-09-27T15:08:45;12.20;99.90
43047;DHT22;28672;49.358;8.780;2022-09-27T15:11:14;12.30;99.90
43047;DHT22;28672;49.358;8.780;2022-09-27T15:13:41;12.40;99.90
43047;DHT22;28672;49.358;8.780;2022-09-27T15:16:13;12.30;99.90
43047;DHT22;28672;49.358;8.780;2022-09-27T15:18:43;12.40;99.90
43047;DHT22;28672;49.358;8.780;2022-09-27T15:21:12;12.40;99.90
43047;DHT22;28672;49.358;8.780;2022-09-27T15:23:41;12.20;99.90
43047;DHT22;28672;49.358;8.780;2022-09-27T15:26:25;12.30;99.90
43047;DHT22;28672;49.358;8.780;2022-09-27T15:28:51;12.20;99.90
43047;DHT22;28672;49.358;8.780;2022-09-27T15:31:31;12.20;99.90
43047;DHT22;28672;49.358;8.780;2022-09-27T15:33:59;12.20;99.90
43047;DHT22;28672;49.358;8.780;2022-09-27T15:36:50;12.10;99.90
43047;DHT22;28672;49.358;8.780;2022-09-27T15:42:11;12.10;99.90
43047;DHT22;28672;49.358;8.780;2022-09-27T15:44:49;12.00;99.90
43047;DHT22;28672;49.358;8.780;2022-09-27T15:47:38;11.90;99.90
43047;DHT22;28672;49.358;8.780;2022-09-27T15:52:51;11.90;99.90
43047;DHT22;28672;49.358;8.780;2022-09-27T15:55:27;12.00;99.90
43047;DHT22;28672;49.358;8.780;2022-09-27T15:57:55;12.00;99.90
43047;DHT22;28672;49.358;8.780;2022-09-27T16:00:25;11.90;99.90
43047;DHT22;28672;49.358;8.780;2022-09-27T16:02:51;11.90;99.90
43047;DHT22;28672;49.358;8.780;2022-09-27T16:05:16;11.90;99.90
43047;DHT22;28672;49.358;8.780;2022-09-27T16:07:42;11.80;99.90
43047;DHT22;28672;49.358;8.780;2022-09-27T16:12:38;11.70;99.90
43047;DHT22;28672;49.358;8.780;2022-09-27T16:15:04;11.70;99.90
43047;DHT22;28672;49.358;8.780;2022-09-27T16:17:29;11.70;99.90
43047;DHT22;28672;49.358;8.780;2022-09-27T16:19:56;11.70;99.90
43047;DHT22;28672;49.358;8.780;2022-09-27T16:22:22;11.80;99.90
43047;DHT22;28672;49.358;8.780;2022-09-27T16:24:47;11.80;99.90
43047;DHT22;28672;49.358;8.780;2022-09-27T16:27:25;11.80;99.90
43047;DHT22;28672;49.358;8.780;2022-09-27T16:29:52;11.80;99.90
43047;DHT22;28672;49.358;8.780;2022-09-27T16:32:18;11.70;99.90
43047;DHT22;28672;49.358;8.780;2022-09-27T16:34:43;11.80;99.90
43047;DHT22;28672;49.358;8.780;2022-09-27T16:37:09;11.70;99.90
43047;DHT22;28672;49.358;8.780;2022-09-27T16:39:35;11.70;99.90
43047;DHT22;28672;49.358;8.780;2022-09-27T16:42:01;11.70;99.90
43047;DHT22;28672;49.358;8.780;2022-09-27T16:44:30;11.60;99.90
43047;DHT22;28672;49.358;8.780;2022-09-27T16:46:59;11.60;99.90
43047;DHT22;28672;49.358;8.780;2022-09-27T16:49:25;11.50;99.90
43047;DHT22;28672;49.358;8.780;2022-09-27T16:52:09;11.50;99.90
43047;DHT22;28672;49.358;8.780;2022-09-27T16:54:35;11.40;99.90
43047;DHT22;28672;49.358;8.780;2022-09-27T16:57:00;11.30;99.90
43047;DHT22;28672;49.358;8.780;2022-09-27T16:59:26;11.10;99.90
43047;DHT22;28672;49.358;8.780;2022-09-27T17:01:52;11.10;99.90
43047;DHT22;28672;49.358;8.780;2022-09-27T17:04:22;11.00;99.90
43047;DHT22;28672;49.358;8.780;2022-09-27T17:06:47;10.90;99.90
43047;DHT22;28672;49.358;8.780;2022-09-27T17:09:13;10.80;99.90
43047;DHT22;28672;49.358;8.780;2022-09-27T17:11:38;10.70;99.90
43047;DHT22;28672;49.358;8.780;2022-09-27T17:14:04;10.60;99.90
43047;DHT22;28672;49.358;8.780;2022-09-27T17:16:29;10.60;99.90
43047;DHT22;28672;49.358;8.780;2022-09-27T17:18:55;10.50;99.90
43047;DHT22;28672;49.358;8.780;2022-09-27T17:21:20;10.50;99.90
43047;DHT22;28672;49.358;8.780;2022-09-27T17:23:46;10.40;99.90
43047;DHT22;28672;49.358;8.780;2022-09-27T17:26:20;10.40;99.90
43047;DHT22;28672;49.358;8.780;2022-09-27T17:28:46;10.40;99.90
43047;DHT22;28672;49.358;8.780;2022-09-27T17:31:14;10.50;99.90
43047;DHT22;28672;49.358;8.780;2022-09-27T17:33:45;10.50;99.90
43047;DHT22;28672;49.358;8.780;2022-09-27T17:36:16;10.50;99.90
43047;DHT22;28672;49.358;8.780;2022-09-27T17:38:43;10.50;99.90
43047;DHT22;28672;49.358;8.780;2022-09-27T17:41:12;10.50;99.90
43047;DHT22;28672;49.358;8.780;2022-09-27T17:43:39;10.40;99.90
43047;DHT22;28672;49.358;8.780;2022-09-27T17:46:11;10.40;99.90
43047;DHT22;28672;49.358;8.780;2022-09-27T17:48:37;10.40;99.90
43047;DHT22;28672;49.358;8.780;2022-09-27T17:51:21;10.40;99.90
43047;DHT22;28672;49.358;8.780;2022-09-27T17:53:47;10.30;99.90
43047;DHT22;28672;49.358;8.780;2022-09-27T17:56:14;10.30;99.90
43047;DHT22;28672;49.358;8.780;2022-09-27T17:58:50;10.30;99.90
43047;DHT22;28672;49.358;8.780;2022-09-27T18:01:17;10.30;99.90
43047;DHT22;28672;49.358;8.780;2022-09-27T18:03:44;10.20;99.90
43047;DHT22;28672;49.358;8.780;2022-09-27T18:06:11;10.30;99.90
43047;DHT22;28672;49.358;8.780;2022-09-27T18:08:37;10.30;99.90